sensor_id;sensor_type;location;lat;lon;timestamp;P1;durP1;ratioP1;P2;durP2;ratioP2
39218;SDS011;24934;52.752;6.964;2022-12-07T00:03:34;27.63;;;16.60;;
39218;SDS011;24934;52.752;6.964;2022-12-07T00:06:01;23.33;;;15.63;;
39218;SDS011;24934;52.752;6.964;2022-12-07T00:08:28;19.57;;;16.33;;
39218;SDS011;24934;52.752;6.964;2022-12-07T00:10:55;21.93;;;16.87;;
39218;SDS011;24934;52.752;6.964;2022-12-07T00:13:25;28.97;;;17.30;;
39218;SDS011;24934;52.752;6.964;2022-12-07T00:15:50;19.17;;;15.63;;
39218;SDS011;24934;52.752;6.964;2022-12-07T00:18:18;19.27;;;15.80;;
39218;SDS011;24934;52.752;6.964;2022-12-07T00:20:43;18.50;;;15.87;;
39218;SDS011;24934;52.752;6.964;2022-12-07T00:23:09;23.57;;;15.73;;
39218;SDS011;24934;52.752;6.964;2022-12-07T00:25:35;21.17;;;15.83;;
39218;SDS011;24934;52.752;6.964;2022-12-07T00:28:00;24.23;;;15.90;;
39218;SDS011;24934;52.752;6.964;2022-12-07T00:30:26;19.80;;;15.83;;
39218;SDS011;24934;52.752;6.964;2022-12-07T00:32:52;19.80;;;15.17;;
39218;SDS011;24934;52.752;6.964;2022-12-07T00:35:17;21.63;;;15.67;;
39218;SDS011;24934;52.752;6.964;2022-12-07T00:37:43;25.23;;;15.30;;
39218;SDS011;24934;52.752;6.964;2022-12-07T00:40:08;21.00;;;15.03;;
39218;SDS011;24934;52.752;6.964;2022-12-07T00:42:34;18.27;;;15.23;;
39218;SDS011;24934;52.752;6.964;2022-12-07T00:45:00;24.07;;;14.67;;
39218;SDS011;24934;52.752;6.964;2022-12-07T00:47:28;20.30;;;15.03;;
39218;SDS011;24934;52.752;6.964;2022-12-07T00:49:54;20.13;;;14.70;;
39218;SDS011;24934;52.752;6.964;2022-12-07T00:52:23;19.13;;;15.20;;
39218;SDS011;24934;52.752;6.964;2022-12-07T00:54:52;22.17;;;15.10;;
39218;SDS011;24934;52.752;6.964;2022-12-07T00:57:17;20.33;;;15.00;;
39218;SDS011;24934;52.752;6.964;2022-12-07T00:59:43;21.23;;;15.40;;
39218;SDS011;24934;52.752;6.964;2022-12-07T01:02:09;18.67;;;15.23;;
39218;SDS011;24934;52.752;6.964;2022-12-07T01:04:34;24.93;;;15.23;;
39218;SDS011;24934;52.752;6.964;2022-12-07T01:07:02;18.17;;;14.70;;
39218;SDS011;24934;52.752;6.964;2022-12-07T01:09:28;20.77;;;15.20;;
39218;SDS011;24934;52.752;6.964;2022-12-07T01:11:56;24.57;;;15.83;;
39218;SDS011;24934;52.752;6.964;2022-12-07T01:14:22;24.80;;;15.00;;
39218;SDS011;24934;52.752;6.964;2022-12-07T01:16:47;19.13;;;15.33;;
39218;SDS011;24934;52.752;6.964;2022-12-07T01:19:13;24.80;;;15.60;;
39218;SDS011;24934;52.752;6.964;2022-12-07T01:21:39;18.57;;;14.70;;
39218;SDS011;24934;52.752;6.964;2022-12-07T01:24:05;24.43;;;14.77;;
39218;SDS011;24934;52.752;6.964;2022-12-07T01:26:33;22.40;;;14.67;;
39218;SDS011;24934;52.752;6.964;2022-12-07T01:28:59;18.13;;;15.27;;
39218;SDS011;24934;52.752;6.964;2022-12-07T01:31:25;24.80;;;15.83;;
39218;SDS011;24934;52.752;6.964;2022-12-07T01:33:53;22.13;;;15.30;;
39218;SDS011;24934;52.752;6.964;2022-12-07T01:36:24;25.13;;;14.77;;
39218;SDS011;24934;52.752;6.964;2022-12-07T01:38:52;23.50;;;15.57;;
39218;SDS011;24934;52.752;6.964;2022-12-07T01:41:21;23.07;;;15.47;;
39218;SDS011;24934;52.752;6.964;2022-12-07T01:46:33;26.43;;;14.70;;
39218;SDS011;24934;52.752;6.964;2022-12-07T01:48:59;22.50;;;15.87;;
39218;SDS011;24934;52.752;6.964;2022-12-07T01:51:28;21.10;;;16.37;;
39218;SDS011;24934;52.752;6.964;2022-12-07T01:53:57;26.40;;;16.10;;
39218;SDS011;24934;52.752;6.964;2022-12-07T01:56:24;22.30;;;16.27;;
39218;SDS011;24934;52.752;6.964;2022-12-07T01:58:51;23.00;;;16.50;;
39218;SDS011;24934;52.752;6.964;2022-12-07T02:01:19;20.90;;;15.77;;
39218;SDS011;24934;52.752;6.964;2022-12-07T02:03:46;23.73;;;15.80;;
39218;SDS011;24934;52.752;6.964;2022-12-07T02:06:13;19.77;;;15.60;;
39218;SDS011;24934;52.752;6.964;2022-12-07T02:08:46;18.03;;;14.77;;
39218;SDS011;24934;52.752;6.964;2022-12-07T02:11:12;22.13;;;14.73;;
39218;SDS011;24934;52.752;6.964;2022-12-07T02:13:44;19.67;;;14.80;;
39218;SDS011;24934;52.752;6.964;2022-12-07T02:21:20;24.13;;;14.90;;
39218;SDS011;24934;52.752;6.964;2022-12-07T02:29:49;22.30;;;16.17;;
39218;SDS011;24934;52.752;6.964;2022-12-07T02:37:58;17.20;;;15.40;;
39218;SDS011;24934;52.752;6.964;2022-12-07T02:40:38;20.70;;;15.33;;
39218;SDS011;24934;52.752;6.964;2022-12-07T02:46:03;17.43;;;15.70;;
39218;SDS011;24934;52.752;6.964;2022-12-07T02:48:32;17.40;;;15.50;;
39218;SDS011;24934;52.752;6.964;2022-12-07T02:50:59;16.33;;;14.20;;
39218;SDS011;24934;52.752;6.964;2022-12-07T02:53:36;18.40;;;15.40;;
39218;SDS011;24934;52.752;6.964;2022-12-07T02:59:03;17.60;;;14.10;;
39218;SDS011;24934;52.752;6.964;2022-12-07T03:01:46;20.73;;;14.90;;
39218;SDS011;24934;52.752;6.964;2022-12-07T03:17:59;21.00;;;15.20;;
39218;SDS011;24934;52.752;6.964;2022-12-07T03:20:28;17.00;;;14.33;;
39218;SDS011;24934;52.752;6.964;2022-12-07T03:22:55;20.07;;;13.30;;
39218;SDS011;24934;52.752;6.964;2022-12-07T03:25:22;23.43;;;14.33;;
39218;SDS011;24934;52.752;6.964;2022-12-07T03:27:49;20.20;;;14.60;;
39218;SDS011;24934;52.752;6.964;2022-12-07T03:30:23;26.17;;;15.30;;
39218;SDS011;24934;52.752;6.964;2022-12-07T03:33:06;19.80;;;15.10;;
39218;SDS011;24934;52.752;6.964;2022-12-07T03:35:37;17.67;;;15.70;;
39218;SDS011;24934;52.752;6.964;2022-12-07T03:38:16;18.27;;;16.20;;
39218;SDS011;24934;52.752;6.964;2022-12-07T03:40:47;19.53;;;16.60;;
39218;SDS011;24934;52.752;6.964;2022-12-07T03:43:19;21.20;;;15.73;;
39218;SDS011;24934;52.752;6.964;2022-12-07T03:48:37;26.93;;;16.70;;
39218;SDS011;24934;52.752;6.964;2022-12-07T03:54:05;22.27;;;15.10;;
39218;SDS011;24934;52.752;6.964;2022-12-07T03:56:32;18.63;;;15.27;;
39218;SDS011;24934;52.752;6.964;2022-12-07T03:58:59;25.90;;;15.30;;
39218;SDS011;24934;52.752;6.964;2022-12-07T04:01:25;21.67;;;15.63;;
39218;SDS011;24934;52.752;6.964;2022-12-07T04:03:53;18.13;;;16.27;;
39218;SDS011;24934;52.752;6.964;2022-12-07T04:06:19;20.80;;;16.77;;
39218;SDS011;24934;52.752;6.964;2022-12-07T04:08:45;24.57;;;16.73;;
39218;SDS011;24934;52.752;6.964;2022-12-07T04:11:10;20.67;;;16.87;;
39218;SDS011;24934;52.752;6.964;2022-12-07T04:13:36;22.57;;;17.03;;
39218;SDS011;24934;52.752;6.964;2022-12-07T04:16:21;24.33;;;15.60;;
39218;SDS011;24934;52.752;6.964;2022-12-07T04:18:47;24.13;;;15.43;;
39218;SDS011;24934;52.752;6.964;2022-12-07T04:21:13;18.33;;;16.70;;
39218;SDS011;24934;52.752;6.964;2022-12-07T04:23:38;18.43;;;16.40;;
39218;SDS011;24934;52.752;6.964;2022-12-07T04:26:04;23.13;;;16.63;;
39218;SDS011;24934;52.752;6.964;2022-12-07T04:28:30;21.67;;;16.30;;
39218;SDS011;24934;52.752;6.964;2022-12-07T04:30:55;22.20;;;16.00;;
39218;SDS011;24934;52.752;6.964;2022-12-07T04:33:21;20.33;;;15.27;;
39218;SDS011;24934;52.752;6.964;2022-12-07T04:35:47;22.57;;;15.57;;
39218;SDS011;24934;52.752;6.964;2022-12-07T04:38:12;24.47;;;15.30;;
39218;SDS011;24934;52.752;6.964;2022-12-07T04:40:38;19.70;;;14.87;;
39218;SDS011;24934;52.752;6.964;2022-12-07T04:43:06;26.97;;;15.83;;
39218;SDS011;24934;52.752;6.964;2022-12-07T04:45:32;18.17;;;15.30;;
39218;SDS011;24934;52.752;6.964;2022-12-07T04:47:57;21.03;;;16.30;;
39218;SDS011;24934;52.752;6.964;2022-12-07T04:50:26;17.27;;;15.43;;
39218;SDS011;24934;52.752;6.964;2022-12-07T04:52:52;19.10;;;15.00;;
39218;SDS011;24934;52.752;6.964;2022-12-07T04:55:18;24.00;;;15.27;;
39218;SDS011;24934;52.752;6.964;2022-12-07T04:57:43;19.23;;;15.00;;
39218;SDS011;24934;52.752;6.964;2022-12-07T05:00:09;19.57;;;15.63;;
39218;SDS011;24934;52.752;6.964;2022-12-07T05:02:35;18.90;;;15.57;;
39218;SDS011;24934;52.752;6.964;2022-12-07T05:05:00;21.83;;;15.93;;
39218;SDS011;24934;52.752;6.964;2022-12-07T05:07:26;23.83;;;15.97;;
39218;SDS011;24934;52.752;6.964;2022-12-07T05:09:52;23.20;;;15.37;;
39218;SDS011;24934;52.752;6.964;2022-12-07T05:12:17;24.37;;;15.70;;
39218;SDS011;24934;52.752;6.964;2022-12-07T05:14:43;21.47;;;15.20;;
39218;SDS011;24934;52.752;6.964;2022-12-07T05:17:09;19.53;;;15.60;;
39218;SDS011;24934;52.752;6.964;2022-12-07T05:19:36;22.53;;;16.80;;
39218;SDS011;24934;52.752;6.964;2022-12-07T05:22:04;20.80;;;16.10;;
39218;SDS011;24934;52.752;6.964;2022-12-07T05:24:29;24.47;;;17.80;;
39218;SDS011;24934;52.752;6.964;2022-12-07T05:26:55;23.60;;;16.77;;
39218;SDS011;24934;52.752;6.964;2022-12-07T05:29:20;26.03;;;17.00;;
39218;SDS011;24934;52.752;6.964;2022-12-07T05:31:46;26.50;;;16.87;;
39218;SDS011;24934;52.752;6.964;2022-12-07T05:34:12;29.57;;;17.30;;
39218;SDS011;24934;52.752;6.964;2022-12-07T05:36:37;23.93;;;16.37;;
39218;SDS011;24934;52.752;6.964;2022-12-07T05:39:03;25.30;;;16.77;;
39218;SDS011;24934;52.752;6.964;2022-12-07T05:41:29;20.50;;;15.93;;
39218;SDS011;24934;52.752;6.964;2022-12-07T05:44:14;21.50;;;16.43;;
39218;SDS011;24934;52.752;6.964;2022-12-07T05:46:39;21.73;;;16.20;;
39218;SDS011;24934;52.752;6.964;2022-12-07T05:49:05;26.03;;;16.67;;
39218;SDS011;24934;52.752;6.964;2022-12-07T05:51:31;23.10;;;15.57;;
39218;SDS011;24934;52.752;6.964;2022-12-07T05:53:56;21.07;;;15.07;;
39218;SDS011;24934;52.752;6.964;2022-12-07T05:56:22;20.73;;;15.10;;
39218;SDS011;24934;52.752;6.964;2022-12-07T05:58:48;20.87;;;15.07;;
39218;SDS011;24934;52.752;6.964;2022-12-07T06:01:32;23.43;;;14.20;;
39218;SDS011;24934;52.752;6.964;2022-12-07T06:03:58;25.97;;;14.37;;
39218;SDS011;24934;52.752;6.964;2022-12-07T06:06:24;23.67;;;14.10;;
39218;SDS011;24934;52.752;6.964;2022-12-07T06:08:52;28.77;;;14.17;;
39218;SDS011;24934;52.752;6.964;2022-12-07T06:11:17;20.37;;;14.40;;
39218;SDS011;24934;52.752;6.964;2022-12-07T06:14:01;15.83;;;13.67;;
39218;SDS011;24934;52.752;6.964;2022-12-07T06:16:27;25.00;;;13.30;;
39218;SDS011;24934;52.752;6.964;2022-12-07T06:18:55;20.80;;;13.43;;
39218;SDS011;24934;52.752;6.964;2022-12-07T06:21:21;29.93;;;14.17;;
39218;SDS011;24934;52.752;6.964;2022-12-07T06:23:46;23.80;;;14.60;;
39218;SDS011;24934;52.752;6.964;2022-12-07T06:26:13;19.40;;;14.37;;
39218;SDS011;24934;52.752;6.964;2022-12-07T06:28:39;26.90;;;14.30;;
39218;SDS011;24934;52.752;6.964;2022-12-07T06:31:05;15.50;;;13.90;;
39218;SDS011;24934;52.752;6.964;2022-12-07T06:33:32;17.47;;;14.20;;
39218;SDS011;24934;52.752;6.964;2022-12-07T06:35:58;21.40;;;14.13;;
39218;SDS011;24934;52.752;6.964;2022-12-07T06:38:23;25.63;;;14.63;;
39218;SDS011;24934;52.752;6.964;2022-12-07T06:41:05;18.67;;;14.40;;
39218;SDS011;24934;52.752;6.964;2022-12-07T06:43:35;18.97;;;14.47;;
39218;SDS011;24934;52.752;6.964;2022-12-07T06:46:03;27.37;;;15.33;;
39218;SDS011;24934;52.752;6.964;2022-12-07T06:48:29;19.73;;;14.20;;
39218;SDS011;24934;52.752;6.964;2022-12-07T06:50:54;18.50;;;15.23;;
39218;SDS011;24934;52.752;6.964;2022-12-07T06:53:20;23.50;;;14.57;;
39218;SDS011;24934;52.752;6.964;2022-12-07T06:55:46;23.07;;;14.70;;
39218;SDS011;24934;52.752;6.964;2022-12-07T06:58:11;25.10;;;14.70;;
39218;SDS011;24934;52.752;6.964;2022-12-07T07:00:37;23.80;;;15.07;;
39218;SDS011;24934;52.752;6.964;2022-12-07T07:03:05;21.80;;;15.07;;
39218;SDS011;24934;52.752;6.964;2022-12-07T07:05:31;25.07;;;14.47;;
39218;SDS011;24934;52.752;6.964;2022-12-07T07:07:56;24.17;;;15.03;;
39218;SDS011;24934;52.752;6.964;2022-12-07T07:10:22;26.37;;;14.83;;
39218;SDS011;24934;52.752;6.964;2022-12-07T07:12:51;22.97;;;15.30;;
39218;SDS011;24934;52.752;6.964;2022-12-07T07:15:16;23.10;;;15.20;;
39218;SDS011;24934;52.752;6.964;2022-12-07T07:17:42;22.23;;;14.90;;
39218;SDS011;24934;52.752;6.964;2022-12-07T07:20:08;27.73;;;14.93;;
39218;SDS011;24934;52.752;6.964;2022-12-07T07:22:34;21.47;;;15.17;;
39218;SDS011;24934;52.752;6.964;2022-12-07T07:25:00;31.30;;;15.33;;
39218;SDS011;24934;52.752;6.964;2022-12-07T07:27:26;22.33;;;15.80;;
39218;SDS011;24934;52.752;6.964;2022-12-07T07:29:51;22.50;;;14.80;;
39218;SDS011;24934;52.752;6.964;2022-12-07T07:32:17;25.47;;;15.30;;
39218;SDS011;24934;52.752;6.964;2022-12-07T07:34:43;28.47;;;15.77;;
39218;SDS011;24934;52.752;6.964;2022-12-07T07:37:10;26.70;;;15.37;;
39218;SDS011;24934;52.752;6.964;2022-12-07T07:39:39;23.43;;;15.60;;
39218;SDS011;24934;52.752;6.964;2022-12-07T07:42:05;20.87;;;16.00;;
39218;SDS011;24934;52.752;6.964;2022-12-07T07:44:32;29.90;;;16.73;;
39218;SDS011;24934;52.752;6.964;2022-12-07T07:46:58;24.73;;;16.27;;
39218;SDS011;24934;52.752;6.964;2022-12-07T07:49:25;21.30;;;16.27;;
39218;SDS011;24934;52.752;6.964;2022-12-07T07:51:53;17.70;;;15.90;;
39218;SDS011;24934;52.752;6.964;2022-12-07T07:54:18;25.93;;;16.17;;
39218;SDS011;24934;52.752;6.964;2022-12-07T07:56:44;27.20;;;16.20;;
39218;SDS011;24934;52.752;6.964;2022-12-07T07:59:10;25.30;;;16.77;;
39218;SDS011;24934;52.752;6.964;2022-12-07T08:01:38;23.83;;;15.90;;
39218;SDS011;24934;52.752;6.964;2022-12-07T08:04:04;30.77;;;16.00;;
39218;SDS011;24934;52.752;6.964;2022-12-07T08:06:30;31.40;;;15.93;;
39218;SDS011;24934;52.752;6.964;2022-12-07T08:08:58;23.67;;;15.90;;
39218;SDS011;24934;52.752;6.964;2022-12-07T08:11:24;27.17;;;16.00;;
39218;SDS011;24934;52.752;6.964;2022-12-07T08:13:49;26.07;;;15.70;;
39218;SDS011;24934;52.752;6.964;2022-12-07T08:16:15;21.40;;;15.87;;
39218;SDS011;24934;52.752;6.964;2022-12-07T08:18:41;27.03;;;15.67;;
39218;SDS011;24934;52.752;6.964;2022-12-07T08:21:08;18.70;;;16.00;;
39218;SDS011;24934;52.752;6.964;2022-12-07T08:23:36;21.43;;;16.60;;
39218;SDS011;24934;52.752;6.964;2022-12-07T08:26:03;21.57;;;16.67;;
39218;SDS011;24934;52.752;6.964;2022-12-07T08:28:29;24.87;;;16.37;;
39218;SDS011;24934;52.752;6.964;2022-12-07T08:31:02;20.17;;;16.30;;
39218;SDS011;24934;52.752;6.964;2022-12-07T08:33:29;21.47;;;15.93;;
39218;SDS011;24934;52.752;6.964;2022-12-07T08:35:54;21.07;;;16.17;;
39218;SDS011;24934;52.752;6.964;2022-12-07T08:38:24;21.80;;;16.60;;
39218;SDS011;24934;52.752;6.964;2022-12-07T08:40:56;23.97;;;16.47;;
39218;SDS011;24934;52.752;6.964;2022-12-07T08:43:26;20.77;;;16.47;;
39218;SDS011;24934;52.752;6.964;2022-12-07T08:48:29;30.40;;;17.50;;
39218;SDS011;24934;52.752;6.964;2022-12-07T08:50:56;21.90;;;17.67;;
39218;SDS011;24934;52.752;6.964;2022-12-07T08:53:22;22.73;;;18.10;;
39218;SDS011;24934;52.752;6.964;2022-12-07T08:55:48;22.13;;;18.07;;
39218;SDS011;24934;52.752;6.964;2022-12-07T08:58:14;24.80;;;17.80;;
39218;SDS011;24934;52.752;6.964;2022-12-07T09:00:40;21.93;;;18.27;;
39218;SDS011;24934;52.752;6.964;2022-12-07T09:03:06;26.37;;;18.77;;
39218;SDS011;24934;52.752;6.964;2022-12-07T09:05:32;27.70;;;18.73;;
39218;SDS011;24934;52.752;6.964;2022-12-07T09:08:00;27.83;;;18.83;;
39218;SDS011;24934;52.752;6.964;2022-12-07T09:10:26;25.07;;;19.00;;
39218;SDS011;24934;52.752;6.964;2022-12-07T09:12:52;24.23;;;18.67;;
39218;SDS011;24934;52.752;6.964;2022-12-07T09:15:18;31.87;;;20.00;;
39218;SDS011;24934;52.752;6.964;2022-12-07T09:17:44;26.50;;;18.90;;
39218;SDS011;24934;52.752;6.964;2022-12-07T09:20:09;27.57;;;18.50;;
39218;SDS011;24934;52.752;6.964;2022-12-07T09:22:35;27.20;;;19.07;;
39218;SDS011;24934;52.752;6.964;2022-12-07T09:25:02;27.97;;;18.47;;
39218;SDS011;24934;52.752;6.964;2022-12-07T09:27:28;27.60;;;17.47;;
39218;SDS011;24934;52.752;6.964;2022-12-07T09:29:54;24.80;;;17.87;;
39218;SDS011;24934;52.752;6.964;2022-12-07T09:32:20;30.30;;;17.63;;
39218;SDS011;24934;52.752;6.964;2022-12-07T09:34:48;30.90;;;17.70;;
39218;SDS011;24934;52.752;6.964;2022-12-07T09:37:14;21.30;;;17.33;;
39218;SDS011;24934;52.752;6.964;2022-12-07T09:39:40;19.03;;;16.77;;
39218;SDS011;24934;52.752;6.964;2022-12-07T09:42:06;25.73;;;17.10;;
39218;SDS011;24934;52.752;6.964;2022-12-07T09:44:33;22.37;;;16.43;;
39218;SDS011;24934;52.752;6.964;2022-12-07T09:47:01;25.13;;;16.70;;
39218;SDS011;24934;52.752;6.964;2022-12-07T09:49:28;24.17;;;16.37;;
39218;SDS011;24934;52.752;6.964;2022-12-07T09:52:03;22.90;;;16.50;;
39218;SDS011;24934;52.752;6.964;2022-12-07T09:54:52;23.20;;;15.00;;
39218;SDS011;24934;52.752;6.964;2022-12-07T09:57:27;20.27;;;16.03;;
39218;SDS011;24934;52.752;6.964;2022-12-07T09:59:56;18.53;;;15.57;;
39218;SDS011;24934;52.752;6.964;2022-12-07T10:05:07;23.70;;;15.63;;
39218;SDS011;24934;52.752;6.964;2022-12-07T10:07:39;23.33;;;15.30;;
39218;SDS011;24934;52.752;6.964;2022-12-07T10:10:28;18.10;;;15.53;;
39218;SDS011;24934;52.752;6.964;2022-12-07T10:13:01;20.60;;;15.63;;
39218;SDS011;24934;52.752;6.964;2022-12-07T10:15:49;19.00;;;14.60;;
39218;SDS011;24934;52.752;6.964;2022-12-07T10:18:32;19.57;;;15.70;;
39218;SDS011;24934;52.752;6.964;2022-12-07T10:24:04;18.67;;;15.47;;
39218;SDS011;24934;52.752;6.964;2022-12-07T10:31:54;16.83;;;14.87;;
39218;SDS011;24934;52.752;6.964;2022-12-07T10:39:43;16.57;;;14.60;;
39218;SDS011;24934;52.752;6.964;2022-12-07T10:44:47;19.27;;;14.80;;
39218;SDS011;24934;52.752;6.964;2022-12-07T11:01:29;21.23;;;14.60;;
39218;SDS011;24934;52.752;6.964;2022-12-07T11:09:25;20.80;;;15.00;;
39218;SDS011;24934;52.752;6.964;2022-12-07T11:15:20;16.17;;;14.47;;
39218;SDS011;24934;52.752;6.964;2022-12-07T11:18:01;20.77;;;14.17;;
39218;SDS011;24934;52.752;6.964;2022-12-07T11:20:37;20.93;;;14.90;;
39218;SDS011;24934;52.752;6.964;2022-12-07T11:23:18;16.00;;;14.17;;
39218;SDS011;24934;52.752;6.964;2022-12-07T11:26:01;16.73;;;14.97;;
39218;SDS011;24934;52.752;6.964;2022-12-07T11:34:24;22.50;;;14.43;;
39218;SDS011;24934;52.752;6.964;2022-12-07T11:36:54;19.50;;;15.00;;
39218;SDS011;24934;52.752;6.964;2022-12-07T11:41:48;17.77;;;14.73;;
39218;SDS011;24934;52.752;6.964;2022-12-07T11:49:47;16.07;;;13.23;;
39218;SDS011;24934;52.752;6.964;2022-12-07T11:52:51;16.17;;;13.97;;
39218;SDS011;24934;52.752;6.964;2022-12-07T11:55:27;15.77;;;13.70;;
39218;SDS011;24934;52.752;6.964;2022-12-07T12:01:05;17.40;;;13.97;;
39218;SDS011;24934;52.752;6.964;2022-12-07T12:03:45;15.53;;;13.80;;
39218;SDS011;24934;52.752;6.964;2022-12-07T12:06:13;15.17;;;13.60;;
39218;SDS011;24934;52.752;6.964;2022-12-07T12:08:41;15.03;;;13.50;;
39218;SDS011;24934;52.752;6.964;2022-12-07T12:19:22;16.97;;;15.17;;
39218;SDS011;24934;52.752;6.964;2022-12-07T12:24:50;18.40;;;14.40;;
39218;SDS011;24934;52.752;6.964;2022-12-07T12:27:25;17.43;;;14.57;;
39218;SDS011;24934;52.752;6.964;2022-12-07T12:29:57;17.87;;;15.97;;
39218;SDS011;24934;52.752;6.964;2022-12-07T12:32:36;18.33;;;16.40;;
39218;SDS011;24934;52.752;6.964;2022-12-07T12:37:52;17.87;;;14.67;;
39218;SDS011;24934;52.752;6.964;2022-12-07T12:42:56;18.50;;;15.37;;
39218;SDS011;24934;52.752;6.964;2022-12-07T12:45:23;16.43;;;14.70;;
39218;SDS011;24934;52.752;6.964;2022-12-07T12:50:50;16.90;;;14.67;;
39218;SDS011;24934;52.752;6.964;2022-12-07T12:54:02;16.87;;;14.30;;
39218;SDS011;24934;52.752;6.964;2022-12-07T12:56:39;16.33;;;14.50;;
39218;SDS011;24934;52.752;6.964;2022-12-07T12:59:32;17.33;;;14.13;;
39218;SDS011;24934;52.752;6.964;2022-12-07T13:04:58;14.77;;;13.33;;
39218;SDS011;24934;52.752;6.964;2022-12-07T13:12:59;15.50;;;13.90;;
39218;SDS011;24934;52.752;6.964;2022-12-07T13:15:39;19.23;;;13.87;;
39218;SDS011;24934;52.752;6.964;2022-12-07T13:21:00;17.97;;;14.43;;
39218;SDS011;24934;52.752;6.964;2022-12-07T13:24:06;15.33;;;13.43;;
39218;SDS011;24934;52.752;6.964;2022-12-07T13:29:11;21.03;;;13.83;;
39218;SDS011;24934;52.752;6.964;2022-12-07T13:37:10;13.43;;;12.10;;
39218;SDS011;24934;52.752;6.964;2022-12-07T13:42:24;21.17;;;13.03;;
39218;SDS011;24934;52.752;6.964;2022-12-07T13:44:55;16.10;;;12.10;;
39218;SDS011;24934;52.752;6.964;2022-12-07T13:50:00;14.80;;;11.60;;
39218;SDS011;24934;52.752;6.964;2022-12-07T13:52:27;14.90;;;11.10;;
39218;SDS011;24934;52.752;6.964;2022-12-07T13:57:25;11.57;;;10.40;;
39218;SDS011;24934;52.752;6.964;2022-12-07T13:59:53;17.27;;;10.90;;
39218;SDS011;24934;52.752;6.964;2022-12-07T14:02:20;14.67;;;10.90;;
39218;SDS011;24934;52.752;6.964;2022-12-07T14:05:33;13.83;;;10.50;;
39218;SDS011;24934;52.752;6.964;2022-12-07T14:07:56;11.27;;;10.07;;
39218;SDS011;24934;52.752;6.964;2022-12-07T14:10:33;15.10;;;9.90;;
39218;SDS011;24934;52.752;6.964;2022-12-07T14:13:24;11.70;;;10.50;;
39218;SDS011;24934;52.752;6.964;2022-12-07T14:16:05;11.33;;;9.97;;
39218;SDS011;24934;52.752;6.964;2022-12-07T14:18:53;10.57;;;9.57;;
39218;SDS011;24934;52.752;6.964;2022-12-07T14:21:21;11.07;;;9.93;;
39218;SDS011;24934;52.752;6.964;2022-12-07T14:26:37;10.50;;;9.60;;
39218;SDS011;24934;52.752;6.964;2022-12-07T14:29:29;10.53;;;9.47;;
39218;SDS011;24934;52.752;6.964;2022-12-07T14:31:58;11.20;;;9.93;;
39218;SDS011;24934;52.752;6.964;2022-12-07T14:35:10;12.43;;;10.53;;
39218;SDS011;24934;52.752;6.964;2022-12-07T14:37:39;10.10;;;9.30;;
39218;SDS011;24934;52.752;6.964;2022-12-07T14:40:06;10.43;;;9.43;;
39218;SDS011;24934;52.752;6.964;2022-12-07T14:42:32;10.90;;;9.87;;
39218;SDS011;24934;52.752;6.964;2022-12-07T14:44:59;11.73;;;9.50;;
39218;SDS011;24934;52.752;6.964;2022-12-07T14:47:25;10.87;;;9.93;;
39218;SDS011;24934;52.752;6.964;2022-12-07T14:49:52;10.83;;;9.30;;
39218;SDS011;24934;52.752;6.964;2022-12-07T14:52:22;11.23;;;9.93;;
39218;SDS011;24934;52.752;6.964;2022-12-07T14:54:55;12.43;;;10.10;;
39218;SDS011;24934;52.752;6.964;2022-12-07T14:57:20;11.43;;;10.40;;
39218;SDS011;24934;52.752;6.964;2022-12-07T14:59:46;12.10;;;9.90;;
39218;SDS011;24934;52.752;6.964;2022-12-07T15:02:12;9.67;;;8.70;;
39218;SDS011;24934;52.752;6.964;2022-12-07T15:04:39;9.90;;;9.10;;
39218;SDS011;24934;52.752;6.964;2022-12-07T15:07:06;10.30;;;9.30;;
39218;SDS011;24934;52.752;6.964;2022-12-07T15:09:38;12.33;;;10.20;;
39218;SDS011;24934;52.752;6.964;2022-12-07T15:12:03;12.07;;;10.03;;
39218;SDS011;24934;52.752;6.964;2022-12-07T15:14:29;11.10;;;10.10;;
39218;SDS011;24934;52.752;6.964;2022-12-07T15:16:55;10.37;;;9.57;;
39218;SDS011;24934;52.752;6.964;2022-12-07T15:19:22;10.70;;;9.60;;
39218;SDS011;24934;52.752;6.964;2022-12-07T15:21:50;11.07;;;9.90;;
39218;SDS011;24934;52.752;6.964;2022-12-07T15:24:17;13.07;;;10.07;;
39218;SDS011;24934;52.752;6.964;2022-12-07T15:26:42;11.47;;;9.90;;
39218;SDS011;24934;52.752;6.964;2022-12-07T15:29:09;11.67;;;10.47;;
39218;SDS011;24934;52.752;6.964;2022-12-07T15:31:35;11.57;;;10.40;;
39218;SDS011;24934;52.752;6.964;2022-12-07T15:34:01;11.07;;;9.97;;
39218;SDS011;24934;52.752;6.964;2022-12-07T15:36:29;11.63;;;10.60;;
39218;SDS011;24934;52.752;6.964;2022-12-07T15:38:56;12.33;;;11.03;;
39218;SDS011;24934;52.752;6.964;2022-12-07T15:41:22;12.10;;;10.87;;
39218;SDS011;24934;52.752;6.964;2022-12-07T15:43:48;11.93;;;10.93;;
39218;SDS011;24934;52.752;6.964;2022-12-07T15:46:33;13.00;;;10.77;;
39218;SDS011;24934;52.752;6.964;2022-12-07T15:49:04;11.43;;;10.30;;
39218;SDS011;24934;52.752;6.964;2022-12-07T15:51:34;11.60;;;10.40;;
39218;SDS011;24934;52.752;6.964;2022-12-07T15:54:00;13.47;;;10.50;;
39218;SDS011;24934;52.752;6.964;2022-12-07T15:56:25;12.37;;;11.10;;
39218;SDS011;24934;52.752;6.964;2022-12-07T15:58:51;11.57;;;10.63;;
39218;SDS011;24934;52.752;6.964;2022-12-07T16:01:17;16.90;;;13.47;;
39218;SDS011;24934;52.752;6.964;2022-12-07T16:03:44;13.83;;;12.37;;
39218;SDS011;24934;52.752;6.964;2022-12-07T16:06:11;12.57;;;11.27;;
39218;SDS011;24934;52.752;6.964;2022-12-07T16:08:41;12.13;;;10.83;;
39218;SDS011;24934;52.752;6.964;2022-12-07T16:11:08;19.23;;;11.87;;
39218;SDS011;24934;52.752;6.964;2022-12-07T16:13:34;18.93;;;10.93;;
39218;SDS011;24934;52.752;6.964;2022-12-07T16:16:07;13.33;;;11.80;;
39218;SDS011;24934;52.752;6.964;2022-12-07T16:18:35;12.13;;;10.90;;
39218;SDS011;24934;52.752;6.964;2022-12-07T16:21:01;17.00;;;10.93;;
39218;SDS011;24934;52.752;6.964;2022-12-07T16:23:26;18.03;;;10.60;;
39218;SDS011;24934;52.752;6.964;2022-12-07T16:25:52;11.90;;;10.70;;
39218;SDS011;24934;52.752;6.964;2022-12-07T16:28:18;13.40;;;10.60;;
39218;SDS011;24934;52.752;6.964;2022-12-07T16:30:44;15.33;;;11.27;;
39218;SDS011;24934;52.752;6.964;2022-12-07T16:33:10;11.70;;;10.47;;
39218;SDS011;24934;52.752;6.964;2022-12-07T16:35:38;15.60;;;11.50;;
39218;SDS011;24934;52.752;6.964;2022-12-07T16:38:08;18.30;;;11.83;;
39218;SDS011;24934;52.752;6.964;2022-12-07T16:40:34;14.00;;;10.80;;
39218;SDS011;24934;52.752;6.964;2022-12-07T16:43:00;13.73;;;10.50;;
39218;SDS011;24934;52.752;6.964;2022-12-07T16:45:25;13.70;;;9.93;;
39218;SDS011;24934;52.752;6.964;2022-12-07T16:47:51;11.73;;;10.00;;
39218;SDS011;24934;52.752;6.964;2022-12-07T16:50:17;14.23;;;10.30;;
39218;SDS011;24934;52.752;6.964;2022-12-07T16:52:43;17.57;;;9.90;;
39218;SDS011;24934;52.752;6.964;2022-12-07T16:55:08;13.67;;;9.90;;
39218;SDS011;24934;52.752;6.964;2022-12-07T16:57:34;14.80;;;10.83;;
39218;SDS011;24934;52.752;6.964;2022-12-07T16:59:59;10.27;;;9.20;;
39218;SDS011;24934;52.752;6.964;2022-12-07T17:02:25;10.00;;;9.00;;
39218;SDS011;24934;52.752;6.964;2022-12-07T17:04:51;17.87;;;10.40;;
39218;SDS011;24934;52.752;6.964;2022-12-07T17:07:16;12.43;;;9.60;;
39218;SDS011;24934;52.752;6.964;2022-12-07T17:09:42;10.43;;;9.13;;
39218;SDS011;24934;52.752;6.964;2022-12-07T17:12:07;12.10;;;8.90;;